sensor_id;sensor_type;location;lat;lon;timestamp;P1;durP1;ratioP1;P2;durP2;ratioP2
17796;SDS011;55596;53.554;9.916;2023-07-20T00:01:51;5.30;;;3.27;;
17796;SDS011;55596;53.554;9.916;2023-07-20T00:04:19;3.37;;;3.00;;
17796;SDS011;55596;53.554;9.916;2023-07-20T00:06:46;4.67;;;3.10;;
17796;SDS011;55596;53.554;9.916;2023-07-20T00:09:13;5.20;;;2.80;;
17796;SDS011;55596;53.554;9.916;2023-07-20T00:11:47;2.97;;;2.70;;
17796;SDS011;55596;53.554;9.916;2023-07-20T00:14:17;5.07;;;2.70;;
17796;SDS011;55596;53.554;9.916;2023-07-20T00:16:44;3.73;;;2.50;;
17796;SDS011;55596;53.554;9.916;2023-07-20T00:19:14;4.60;;;2.43;;
17796;SDS011;55596;53.554;9.916;2023-07-20T00:21:42;2.77;;;2.43;;
17796;SDS011;55596;53.554;9.916;2023-07-20T00:24:09;2.83;;;2.50;;
17796;SDS011;55596;53.554;9.916;2023-07-20T00:26:37;2.73;;;2.50;;
17796;SDS011;55596;53.554;9.916;2023-07-20T00:29:04;3.77;;;2.37;;
17796;SDS011;55596;53.554;9.916;2023-07-20T00:31:33;3.10;;;2.40;;
17796;SDS011;55596;53.554;9.916;2023-07-20T00:34:02;3.77;;;2.60;;
17796;SDS011;55596;53.554;9.916;2023-07-20T00:36:29;2.33;;;2.07;;
17796;SDS011;55596;53.554;9.916;2023-07-20T00:38:56;4.47;;;2.37;;
17796;SDS011;55596;53.554;9.916;2023-07-20T00:41:23;4.97;;;2.10;;
17796;SDS011;55596;53.554;9.916;2023-07-20T00:43:54;3.67;;;1.93;;
17796;SDS011;55596;53.554;9.916;2023-07-20T00:46:21;2.10;;;1.90;;
17796;SDS011;55596;53.554;9.916;2023-07-20T00:48:50;2.53;;;2.33;;
17796;SDS011;55596;53.554;9.916;2023-07-20T00:51:20;2.70;;;2.10;;
17796;SDS011;55596;53.554;9.916;2023-07-20T00:53:48;2.43;;;2.07;;
17796;SDS011;55596;53.554;9.916;2023-07-20T00:56:16;4.67;;;2.63;;
17796;SDS011;55596;53.554;9.916;2023-07-20T00:58:44;4.80;;;2.47;;
17796;SDS011;55596;53.554;9.916;2023-07-20T01:01:11;6.53;;;3.23;;
17796;SDS011;55596;53.554;9.916;2023-07-20T01:03:39;7.43;;;3.37;;
17796;SDS011;55596;53.554;9.916;2023-07-20T01:06:12;7.53;;;4.00;;
17796;SDS011;55596;53.554;9.916;2023-07-20T01:08:43;8.97;;;4.63;;
17796;SDS011;55596;53.554;9.916;2023-07-20T01:11:16;6.43;;;5.27;;
17796;SDS011;55596;53.554;9.916;2023-07-20T01:13:43;7.00;;;6.13;;
17796;SDS011;55596;53.554;9.916;2023-07-20T01:16:11;10.30;;;6.07;;
17796;SDS011;55596;53.554;9.916;2023-07-20T01:18:38;7.33;;;6.47;;
17796;SDS011;55596;53.554;9.916;2023-07-20T01:21:12;7.77;;;6.37;;
17796;SDS011;55596;53.554;9.916;2023-07-20T01:23:52;7.30;;;6.43;;
17796;SDS011;55596;53.554;9.916;2023-07-20T01:29:11;8.00;;;6.80;;
17796;SDS011;55596;53.554;9.916;2023-07-20T01:31:46;7.50;;;6.17;;
17796;SDS011;55596;53.554;9.916;2023-07-20T01:34:14;10.13;;;6.90;;
17796;SDS011;55596;53.554;9.916;2023-07-20T01:36:44;9.43;;;6.43;;
17796;SDS011;55596;53.554;9.916;2023-07-20T01:39:13;6.63;;;5.87;;
17796;SDS011;55596;53.554;9.916;2023-07-20T01:41:41;7.50;;;5.50;;
17796;SDS011;55596;53.554;9.916;2023-07-20T01:44:08;6.90;;;5.67;;
17796;SDS011;55596;53.554;9.916;2023-07-20T01:46:35;8.83;;;6.40;;
17796;SDS011;55596;53.554;9.916;2023-07-20T01:49:05;14.83;;;7.97;;
17796;SDS011;55596;53.554;9.916;2023-07-20T01:51:32;13.97;;;8.60;;
17796;SDS011;55596;53.554;9.916;2023-07-20T01:53:59;11.23;;;9.17;;
17796;SDS011;55596;53.554;9.916;2023-07-20T01:56:26;15.73;;;9.97;;
17796;SDS011;55596;53.554;9.916;2023-07-20T01:58:54;14.70;;;9.63;;
17796;SDS011;55596;53.554;9.916;2023-07-20T02:01:21;12.13;;;9.73;;
17796;SDS011;55596;53.554;9.916;2023-07-20T02:03:48;16.97;;;9.70;;
17796;SDS011;55596;53.554;9.916;2023-07-20T02:06:17;17.37;;;10.57;;
17796;SDS011;55596;53.554;9.916;2023-07-20T02:08:44;18.57;;;9.47;;
17796;SDS011;55596;53.554;9.916;2023-07-20T02:11:11;16.50;;;9.83;;
17796;SDS011;55596;53.554;9.916;2023-07-20T02:13:38;26.13;;;10.10;;
17796;SDS011;55596;53.554;9.916;2023-07-20T02:16:06;13.77;;;9.67;;
17796;SDS011;55596;53.554;9.916;2023-07-20T02:18:33;10.53;;;9.00;;
17796;SDS011;55596;53.554;9.916;2023-07-20T02:21:00;14.23;;;9.47;;
17796;SDS011;55596;53.554;9.916;2023-07-20T02:23:28;13.20;;;8.43;;
17796;SDS011;55596;53.554;9.916;2023-07-20T02:25:56;12.80;;;9.30;;
17796;SDS011;55596;53.554;9.916;2023-07-20T02:28:23;11.03;;;8.27;;
17796;SDS011;55596;53.554;9.916;2023-07-20T02:30:50;11.83;;;8.33;;
17796;SDS011;55596;53.554;9.916;2023-07-20T02:33:17;9.83;;;7.97;;
17796;SDS011;55596;53.554;9.916;2023-07-20T02:35:45;12.50;;;8.43;;
17796;SDS011;55596;53.554;9.916;2023-07-20T02:38:12;10.13;;;7.27;;
17796;SDS011;55596;53.554;9.916;2023-07-20T02:40:40;10.23;;;7.47;;
17796;SDS011;55596;53.554;9.916;2023-07-20T02:43:08;10.63;;;7.13;;
17796;SDS011;55596;53.554;9.916;2023-07-20T02:45:39;11.07;;;7.27;;
17796;SDS011;55596;53.554;9.916;2023-07-20T02:48:06;9.37;;;6.57;;
17796;SDS011;55596;53.554;9.916;2023-07-20T02:50:34;7.63;;;6.57;;
17796;SDS011;55596;53.554;9.916;2023-07-20T02:53:01;8.87;;;6.93;;
17796;SDS011;55596;53.554;9.916;2023-07-20T02:55:28;10.13;;;7.10;;
17796;SDS011;55596;53.554;9.916;2023-07-20T02:57:57;7.77;;;6.47;;
17796;SDS011;55596;53.554;9.916;2023-07-20T03:00:26;7.53;;;6.30;;
17796;SDS011;55596;53.554;9.916;2023-07-20T03:02:53;8.63;;;6.40;;
17796;SDS011;55596;53.554;9.916;2023-07-20T03:05:21;8.33;;;6.83;;
17796;SDS011;55596;53.554;9.916;2023-07-20T03:07:50;7.90;;;6.10;;
17796;SDS011;55596;53.554;9.916;2023-07-20T03:10:17;9.03;;;6.60;;
17796;SDS011;55596;53.554;9.916;2023-07-20T03:12:44;7.67;;;5.93;;
17796;SDS011;55596;53.554;9.916;2023-07-20T03:15:13;7.30;;;6.07;;
17796;SDS011;55596;53.554;9.916;2023-07-20T03:17:40;9.83;;;5.90;;
17796;SDS011;55596;53.554;9.916;2023-07-20T03:20:07;10.10;;;6.20;;
17796;SDS011;55596;53.554;9.916;2023-07-20T03:22:35;8.17;;;6.43;;
17796;SDS011;55596;53.554;9.916;2023-07-20T03:25:03;7.13;;;6.43;;
17796;SDS011;55596;53.554;9.916;2023-07-20T03:27:31;6.13;;;5.43;;
17796;SDS011;55596;53.554;9.916;2023-07-20T03:29:58;8.63;;;5.73;;
17796;SDS011;55596;53.554;9.916;2023-07-20T03:32:27;5.70;;;5.17;;
17796;SDS011;55596;53.554;9.916;2023-07-20T03:34:54;7.37;;;5.80;;
17796;SDS011;55596;53.554;9.916;2023-07-20T03:37:21;6.13;;;5.47;;
17796;SDS011;55596;53.554;9.916;2023-07-20T03:39:48;7.33;;;5.57;;
17796;SDS011;55596;53.554;9.916;2023-07-20T03:42:16;7.50;;;6.40;;
17796;SDS011;55596;53.554;9.916;2023-07-20T03:44:43;7.87;;;6.33;;
17796;SDS011;55596;53.554;9.916;2023-07-20T03:47:10;11.33;;;7.30;;
17796;SDS011;55596;53.554;9.916;2023-07-20T03:49:40;8.80;;;6.90;;
17796;SDS011;55596;53.554;9.916;2023-07-20T03:52:07;8.57;;;6.83;;
17796;SDS011;55596;53.554;9.916;2023-07-20T03:54:34;9.60;;;7.33;;
17796;SDS011;55596;53.554;9.916;2023-07-20T03:57:01;9.90;;;7.60;;
17796;SDS011;55596;53.554;9.916;2023-07-20T03:59:28;10.57;;;7.60;;
17796;SDS011;55596;53.554;9.916;2023-07-20T04:01:55;12.13;;;8.43;;
17796;SDS011;55596;53.554;9.916;2023-07-20T04:04:23;10.03;;;8.60;;
17796;SDS011;55596;53.554;9.916;2023-07-20T04:06:51;10.30;;;8.43;;
17796;SDS011;55596;53.554;9.916;2023-07-20T04:09:18;12.33;;;9.53;;
17796;SDS011;55596;53.554;9.916;2023-07-20T04:11:45;11.43;;;8.70;;
17796;SDS011;55596;53.554;9.916;2023-07-20T04:14:12;13.70;;;8.87;;
17796;SDS011;55596;53.554;9.916;2023-07-20T04:16:39;13.67;;;8.63;;
17796;SDS011;55596;53.554;9.916;2023-07-20T04:19:07;18.03;;;9.50;;
17796;SDS011;55596;53.554;9.916;2023-07-20T04:21:39;9.93;;;7.60;;
17796;SDS011;55596;53.554;9.916;2023-07-20T04:24:08;10.17;;;6.70;;
17796;SDS011;55596;53.554;9.916;2023-07-20T04:26:35;7.40;;;6.00;;
17796;SDS011;55596;53.554;9.916;2023-07-20T04:29:02;8.27;;;5.00;;
17796;SDS011;55596;53.554;9.916;2023-07-20T04:31:32;10.10;;;6.33;;
17796;SDS011;55596;53.554;9.916;2023-07-20T04:33:59;7.07;;;5.73;;
17796;SDS011;55596;53.554;9.916;2023-07-20T04:36:26;7.83;;;6.00;;
17796;SDS011;55596;53.554;9.916;2023-07-20T04:38:53;7.07;;;5.90;;
17796;SDS011;55596;53.554;9.916;2023-07-20T04:41:22;8.67;;;6.30;;
17796;SDS011;55596;53.554;9.916;2023-07-20T04:43:50;6.90;;;6.20;;
17796;SDS011;55596;53.554;9.916;2023-07-20T04:46:17;7.17;;;5.40;;
17796;SDS011;55596;53.554;9.916;2023-07-20T04:48:46;7.20;;;5.90;;
17796;SDS011;55596;53.554;9.916;2023-07-20T04:51:13;9.40;;;7.27;;
17796;SDS011;55596;53.554;9.916;2023-07-20T04:53:42;11.30;;;7.80;;
17796;SDS011;55596;53.554;9.916;2023-07-20T04:56:09;9.87;;;7.87;;
17796;SDS011;55596;53.554;9.916;2023-07-20T04:58:38;16.43;;;8.60;;
17796;SDS011;55596;53.554;9.916;2023-07-20T05:01:05;12.13;;;9.30;;
17796;SDS011;55596;53.554;9.916;2023-07-20T05:03:32;11.80;;;9.20;;
17796;SDS011;55596;53.554;9.916;2023-07-20T05:06:01;13.70;;;9.50;;
17796;SDS011;55596;53.554;9.916;2023-07-20T05:08:28;13.90;;;10.20;;
17796;SDS011;55596;53.554;9.916;2023-07-20T05:10:56;14.80;;;10.93;;
17796;SDS011;55596;53.554;9.916;2023-07-20T05:13:23;15.17;;;10.67;;
17796;SDS011;55596;53.554;9.916;2023-07-20T05:15:52;12.33;;;10.70;;
17796;SDS011;55596;53.554;9.916;2023-07-20T05:18:19;13.77;;;11.53;;
17796;SDS011;55596;53.554;9.916;2023-07-20T05:20:48;11.60;;;10.50;;
17796;SDS011;55596;53.554;9.916;2023-07-20T05:23:16;12.37;;;10.17;;
17796;SDS011;55596;53.554;9.916;2023-07-20T05:25:44;13.37;;;10.90;;
17796;SDS011;55596;53.554;9.916;2023-07-20T05:28:11;13.97;;;11.30;;
17796;SDS011;55596;53.554;9.916;2023-07-20T05:30:39;13.03;;;10.80;;
17796;SDS011;55596;53.554;9.916;2023-07-20T05:33:08;12.90;;;10.80;;
17796;SDS011;55596;53.554;9.916;2023-07-20T05:35:35;14.40;;;11.77;;
17796;SDS011;55596;53.554;9.916;2023-07-20T05:38:03;14.33;;;11.57;;
17796;SDS011;55596;53.554;9.916;2023-07-20T05:40:31;14.20;;;11.63;;
17796;SDS011;55596;53.554;9.916;2023-07-20T05:42:58;14.43;;;11.60;;
17796;SDS011;55596;53.554;9.916;2023-07-20T05:45:25;11.87;;;10.73;;
17796;SDS011;55596;53.554;9.916;2023-07-20T05:47:53;12.20;;;10.30;;
17796;SDS011;55596;53.554;9.916;2023-07-20T05:50:21;12.27;;;10.80;;
17796;SDS011;55596;53.554;9.916;2023-07-20T05:52:48;12.30;;;9.53;;
17796;SDS011;55596;53.554;9.916;2023-07-20T05:55:15;12.60;;;9.60;;
17796;SDS011;55596;53.554;9.916;2023-07-20T05:57:43;12.27;;;9.20;;
17796;SDS011;55596;53.554;9.916;2023-07-20T06:00:11;11.80;;;9.30;;
17796;SDS011;55596;53.554;9.916;2023-07-20T06:02:38;9.77;;;8.73;;
17796;SDS011;55596;53.554;9.916;2023-07-20T06:05:06;10.70;;;8.33;;
17796;SDS011;55596;53.554;9.916;2023-07-20T06:07:35;8.63;;;7.83;;
17796;SDS011;55596;53.554;9.916;2023-07-20T06:10:03;9.40;;;5.87;;
17796;SDS011;55596;53.554;9.916;2023-07-20T06:12:30;7.10;;;4.90;;
17796;SDS011;55596;53.554;9.916;2023-07-20T06:15:01;8.37;;;4.53;;
17796;SDS011;55596;53.554;9.916;2023-07-20T06:17:28;5.03;;;3.93;;
17796;SDS011;55596;53.554;9.916;2023-07-20T06:19:56;6.23;;;3.50;;
17796;SDS011;55596;53.554;9.916;2023-07-20T06:22:23;4.10;;;3.17;;
17796;SDS011;55596;53.554;9.916;2023-07-20T06:24:51;5.83;;;3.13;;
17796;SDS011;55596;53.554;9.916;2023-07-20T06:27:18;3.87;;;2.53;;
17796;SDS011;55596;53.554;9.916;2023-07-20T06:29:45;3.47;;;2.00;;
17796;SDS011;55596;53.554;9.916;2023-07-20T06:32:12;3.43;;;1.90;;
17796;SDS011;55596;53.554;9.916;2023-07-20T06:34:40;4.07;;;2.20;;
17796;SDS011;55596;53.554;9.916;2023-07-20T06:37:07;7.03;;;2.30;;
17796;SDS011;55596;53.554;9.916;2023-07-20T06:39:34;4.63;;;2.27;;
17796;SDS011;55596;53.554;9.916;2023-07-20T06:42:03;5.57;;;1.90;;
17796;SDS011;55596;53.554;9.916;2023-07-20T06:44:30;5.20;;;2.87;;
17796;SDS011;55596;53.554;9.916;2023-07-20T06:46:58;4.63;;;1.93;;
17796;SDS011;55596;53.554;9.916;2023-07-20T06:49:25;3.83;;;1.57;;
17796;SDS011;55596;53.554;9.916;2023-07-20T06:51:51;6.30;;;1.80;;
17796;SDS011;55596;53.554;9.916;2023-07-20T06:54:18;3.30;;;1.40;;
17796;SDS011;55596;53.554;9.916;2023-07-20T06:56:46;3.17;;;1.30;;
17796;SDS011;55596;53.554;9.916;2023-07-20T06:59:14;4.03;;;1.30;;
17796;SDS011;55596;53.554;9.916;2023-07-20T07:01:41;8.20;;;1.90;;
17796;SDS011;55596;53.554;9.916;2023-07-20T07:04:08;1.83;;;1.20;;
17796;SDS011;55596;53.554;9.916;2023-07-20T07:06:36;5.47;;;1.50;;
17796;SDS011;55596;53.554;9.916;2023-07-20T07:09:03;6.17;;;1.40;;
17796;SDS011;55596;53.554;9.916;2023-07-20T07:11:30;3.17;;;1.40;;
17796;SDS011;55596;53.554;9.916;2023-07-20T07:13:57;1.73;;;1.13;;
17796;SDS011;55596;53.554;9.916;2023-07-20T07:16:26;3.80;;;1.37;;
17796;SDS011;55596;53.554;9.916;2023-07-20T07:18:53;3.63;;;1.20;;
17796;SDS011;55596;53.554;9.916;2023-07-20T07:21:20;3.10;;;1.30;;
17796;SDS011;55596;53.554;9.916;2023-07-20T07:23:48;2.67;;;1.17;;
17796;SDS011;55596;53.554;9.916;2023-07-20T07:26:15;5.93;;;1.60;;
17796;SDS011;55596;53.554;9.916;2023-07-20T07:28:42;5.47;;;1.67;;
17796;SDS011;55596;53.554;9.916;2023-07-20T07:31:09;2.23;;;1.00;;
17796;SDS011;55596;53.554;9.916;2023-07-20T07:33:38;4.03;;;1.30;;
17796;SDS011;55596;53.554;9.916;2023-07-20T07:36:05;4.97;;;1.30;;
17796;SDS011;55596;53.554;9.916;2023-07-20T07:38:34;3.10;;;1.20;;
17796;SDS011;55596;53.554;9.916;2023-07-20T07:41:01;8.17;;;1.40;;
17796;SDS011;55596;53.554;9.916;2023-07-20T07:43:28;5.97;;;1.47;;
17796;SDS011;55596;53.554;9.916;2023-07-20T07:45:55;5.57;;;1.70;;
17796;SDS011;55596;53.554;9.916;2023-07-20T07:48:23;6.80;;;1.77;;
17796;SDS011;55596;53.554;9.916;2023-07-20T07:50:52;3.00;;;1.60;;
17796;SDS011;55596;53.554;9.916;2023-07-20T07:53:20;2.80;;;1.30;;
17796;SDS011;55596;53.554;9.916;2023-07-20T07:55:47;4.93;;;1.90;;
17796;SDS011;55596;53.554;9.916;2023-07-20T07:58:15;6.53;;;1.53;;
17796;SDS011;55596;53.554;9.916;2023-07-20T08:00:42;5.13;;;1.60;;
17796;SDS011;55596;53.554;9.916;2023-07-20T08:03:10;9.67;;;2.00;;
17796;SDS011;55596;53.554;9.916;2023-07-20T08:05:37;4.87;;;1.80;;
17796;SDS011;55596;53.554;9.916;2023-07-20T08:08:06;7.03;;;1.80;;
17796;SDS011;55596;53.554;9.916;2023-07-20T08:10:33;4.40;;;1.50;;
17796;SDS011;55596;53.554;9.916;2023-07-20T08:13:00;5.23;;;1.80;;
17796;SDS011;55596;53.554;9.916;2023-07-20T08:15:28;6.43;;;2.10;;
17796;SDS011;55596;53.554;9.916;2023-07-20T08:17:55;4.77;;;2.20;;
17796;SDS011;55596;53.554;9.916;2023-07-20T08:20:22;4.90;;;1.50;;
17796;SDS011;55596;53.554;9.916;2023-07-20T08:22:51;5.50;;;1.93;;
17796;SDS011;55596;53.554;9.916;2023-07-20T08:25:21;7.43;;;2.30;;
17796;SDS011;55596;53.554;9.916;2023-07-20T08:27:48;8.20;;;2.43;;
17796;SDS011;55596;53.554;9.916;2023-07-20T08:30:15;8.37;;;2.13;;
17796;SDS011;55596;53.554;9.916;2023-07-20T08:32:47;6.00;;;1.97;;
17796;SDS011;55596;53.554;9.916;2023-07-20T08:35:14;7.13;;;2.03;;
17796;SDS011;55596;53.554;9.916;2023-07-20T08:37:43;6.43;;;2.33;;
17796;SDS011;55596;53.554;9.916;2023-07-20T08:40:14;10.27;;;2.33;;
17796;SDS011;55596;53.554;9.916;2023-07-20T08:42:43;9.77;;;2.50;;
17796;SDS011;55596;53.554;9.916;2023-07-20T08:45:10;8.03;;;2.87;;
17796;SDS011;55596;53.554;9.916;2023-07-20T08:47:39;5.03;;;2.50;;
17796;SDS011;55596;53.554;9.916;2023-07-20T08:50:08;7.97;;;2.73;;
17796;SDS011;55596;53.554;9.916;2023-07-20T08:52:36;7.13;;;2.73;;
17796;SDS011;55596;53.554;9.916;2023-07-20T08:55:03;5.23;;;2.40;;
17796;SDS011;55596;53.554;9.916;2023-07-20T08:57:31;10.23;;;2.57;;
17796;SDS011;55596;53.554;9.916;2023-07-20T09:00:01;6.27;;;2.13;;
17796;SDS011;55596;53.554;9.916;2023-07-20T09:02:31;11.20;;;2.63;;
17796;SDS011;55596;53.554;9.916;2023-07-20T09:05:02;6.33;;;2.07;;
17796;SDS011;55596;53.554;9.916;2023-07-20T09:07:29;7.07;;;2.20;;
17796;SDS011;55596;53.554;9.916;2023-07-20T09:09:58;8.47;;;2.23;;
17796;SDS011;55596;53.554;9.916;2023-07-20T09:12:30;5.77;;;2.10;;
17796;SDS011;55596;53.554;9.916;2023-07-20T09:14:58;4.57;;;1.70;;
17796;SDS011;55596;53.554;9.916;2023-07-20T09:17:26;5.63;;;2.00;;
17796;SDS011;55596;53.554;9.916;2023-07-20T09:19:54;8.37;;;1.80;;
17796;SDS011;55596;53.554;9.916;2023-07-20T09:22:21;7.40;;;1.80;;
17796;SDS011;55596;53.554;9.916;2023-07-20T09:24:48;8.70;;;1.70;;
17796;SDS011;55596;53.554;9.916;2023-07-20T09:27:15;8.27;;;1.47;;
17796;SDS011;55596;53.554;9.916;2023-07-20T09:29:51;7.63;;;1.80;;
17796;SDS011;55596;53.554;9.916;2023-07-20T09:32:19;3.33;;;1.13;;
17796;SDS011;55596;53.554;9.916;2023-07-20T09:34:48;3.87;;;1.30;;
17796;SDS011;55596;53.554;9.916;2023-07-20T09:37:19;6.50;;;1.70;;
17796;SDS011;55596;53.554;9.916;2023-07-20T09:39:46;5.17;;;1.57;;
17796;SDS011;55596;53.554;9.916;2023-07-20T09:42:14;5.60;;;1.80;;
17796;SDS011;55596;53.554;9.916;2023-07-20T09:44:43;7.23;;;1.77;;
17796;SDS011;55596;53.554;9.916;2023-07-20T09:47:10;4.57;;;1.77;;
17796;SDS011;55596;53.554;9.916;2023-07-20T09:49:39;8.07;;;2.30;;
17796;SDS011;55596;53.554;9.916;2023-07-20T09:52:08;3.93;;;1.80;;
17796;SDS011;55596;53.554;9.916;2023-07-20T09:54:37;7.07;;;1.77;;
17796;SDS011;55596;53.554;9.916;2023-07-20T09:57:04;6.57;;;1.80;;
17796;SDS011;55596;53.554;9.916;2023-07-20T09:59:34;4.63;;;1.10;;
17796;SDS011;55596;53.554;9.916;2023-07-20T10:02:01;4.27;;;1.40;;
17796;SDS011;55596;53.554;9.916;2023-07-20T10:04:29;4.20;;;1.43;;
17796;SDS011;55596;53.554;9.916;2023-07-20T10:06:56;3.30;;;1.10;;
17796;SDS011;55596;53.554;9.916;2023-07-20T10:09:27;4.63;;;1.13;;
17796;SDS011;55596;53.554;9.916;2023-07-20T10:11:56;6.77;;;1.30;;
17796;SDS011;55596;53.554;9.916;2023-07-20T10:14:24;6.57;;;1.33;;
17796;SDS011;55596;53.554;9.916;2023-07-20T10:16:57;4.47;;;1.60;;
17796;SDS011;55596;53.554;9.916;2023-07-20T10:19:26;4.73;;;1.07;;
17796;SDS011;55596;53.554;9.916;2023-07-20T10:21:56;6.83;;;1.80;;
17796;SDS011;55596;53.554;9.916;2023-07-20T10:24:24;7.13;;;1.67;;
17796;SDS011;55596;53.554;9.916;2023-07-20T10:26:55;4.67;;;1.77;;
17796;SDS011;55596;53.554;9.916;2023-07-20T10:29:22;9.00;;;1.10;;
17796;SDS011;55596;53.554;9.916;2023-07-20T10:31:52;4.30;;;0.90;;
17796;SDS011;55596;53.554;9.916;2023-07-20T10:34:20;4.17;;;1.30;;
17796;SDS011;55596;53.554;9.916;2023-07-20T10:36:47;2.70;;;0.93;;
17796;SDS011;55596;53.554;9.916;2023-07-20T10:39:23;5.33;;;1.00;;
17796;SDS011;55596;53.554;9.916;2023-07-20T10:42:00;3.93;;;1.07;;
17796;SDS011;55596;53.554;9.916;2023-07-20T10:44:28;4.00;;;1.03;;
17796;SDS011;55596;53.554;9.916;2023-07-20T10:46:59;2.63;;;0.90;;
17796;SDS011;55596;53.554;9.916;2023-07-20T10:49:26;4.77;;;1.27;;
17796;SDS011;55596;53.554;9.916;2023-07-20T10:51:57;2.73;;;1.03;;
17796;SDS011;55596;53.554;9.916;2023-07-20T10:57:23;5.70;;;1.30;;
17796;SDS011;55596;53.554;9.916;2023-07-20T10:59:51;5.00;;;1.30;;
17796;SDS011;55596;53.554;9.916;2023-07-20T11:02:19;5.60;;;1.20;;
17796;SDS011;55596;53.554;9.916;2023-07-20T11:04:46;3.83;;;1.27;;
17796;SDS011;55596;53.554;9.916;2023-07-20T11:07:17;5.20;;;0.90;;
17796;SDS011;55596;53.554;9.916;2023-07-20T11:09:44;3.43;;;1.27;;
17796;SDS011;55596;53.554;9.916;2023-07-20T11:12:12;4.73;;;1.10;;
17796;SDS011;55596;53.554;9.916;2023-07-20T11:14:41;3.73;;;1.10;;
17796;SDS011;55596;53.554;9.916;2023-07-20T11:17:12;5.53;;;1.57;;
17796;SDS011;55596;53.554;9.916;2023-07-20T11:19:40;2.43;;;0.90;;
17796;SDS011;55596;53.554;9.916;2023-07-20T11:22:08;4.43;;;0.97;;
17796;SDS011;55596;53.554;9.916;2023-07-20T11:24:38;3.37;;;0.70;;
17796;SDS011;55596;53.554;9.916;2023-07-20T11:27:05;1.63;;;0.73;;
17796;SDS011;55596;53.554;9.916;2023-07-20T11:29:33;3.05;;;0.80;;
17796;SDS011;55596;53.554;9.916;2023-07-20T11:32:01;4.00;;;1.05;;
17796;SDS011;55596;53.554;9.916;2023-07-20T11:34:29;6.72;;;1.20;;
17796;SDS011;55596;53.554;9.916;2023-07-20T11:36:57;3.75;;;0.90;;
17796;SDS011;55596;53.554;9.916;2023-07-20T11:39:24;2.03;;;0.75;;
17796;SDS011;55596;53.554;9.916;2023-07-20T11:41:52;2.97;;;1.17;;
17796;SDS011;55596;53.554;9.916;2023-07-20T11:44:20;3.30;;;1.45;;
17796;SDS011;55596;53.554;9.916;2023-07-20T11:46:59;2.40;;;0.90;;
17796;SDS011;55596;53.554;9.916;2023-07-20T11:49:27;3.70;;;1.15;;
17796;SDS011;55596;53.554;9.916;2023-07-20T11:51:55;1.88;;;0.80;;
17796;SDS011;55596;53.554;9.916;2023-07-20T11:54:23;1.77;;;0.80;;
17796;SDS011;55596;53.554;9.916;2023-07-20T11:56:53;6.10;;;1.58;;
17796;SDS011;55596;53.554;9.916;2023-07-20T11:59:21;5.10;;;1.25;;
17796;SDS011;55596;53.554;9.916;2023-07-20T12:01:48;4.10;;;1.00;;
17796;SDS011;55596;53.554;9.916;2023-07-20T12:04:15;3.47;;;0.90;;
17796;SDS011;55596;53.554;9.916;2023-07-20T12:06:44;7.72;;;1.13;;
17796;SDS011;55596;53.554;9.916;2023-07-20T12:09:13;23.25;;;2.25;;
17796;SDS011;55596;53.554;9.916;2023-07-20T12:11:42;5.00;;;1.10;;
17796;SDS011;55596;53.554;9.916;2023-07-20T12:14:09;1.98;;;0.63;;
17796;SDS011;55596;53.554;9.916;2023-07-20T12:16:37;3.20;;;1.08;;
17796;SDS011;55596;53.554;9.916;2023-07-20T12:19:05;5.25;;;1.15;;
17796;SDS011;55596;53.554;9.916;2023-07-20T12:21:34;3.65;;;0.98;;
17796;SDS011;55596;53.554;9.916;2023-07-20T12:24:03;4.70;;;0.93;;
17796;SDS011;55596;53.554;9.916;2023-07-20T12:26:31;3.45;;;1.00;;
17796;SDS011;55596;53.554;9.916;2023-07-20T12:28:58;2.42;;;0.80;;
17796;SDS011;55596;53.554;9.916;2023-07-20T12:31:27;4.45;;;0.85;;
17796;SDS011;55596;53.554;9.916;2023-07-20T12:33:56;4.97;;;0.75;;
17796;SDS011;55596;53.554;9.916;2023-07-20T12:36:23;3.17;;;1.10;;
17796;SDS011;55596;53.554;9.916;2023-07-20T12:38:51;3.38;;;0.88;;
17796;SDS011;55596;53.554;9.916;2023-07-20T12:41:19;3.25;;;1.08;;
17796;SDS011;55596;53.554;9.916;2023-07-20T12:43:47;5.53;;;1.10;;
17796;SDS011;55596;53.554;9.916;2023-07-20T12:46:18;4.20;;;1.00;;
17796;SDS011;55596;53.554;9.916;2023-07-20T12:48:45;3.72;;;1.05;;
17796;SDS011;55596;53.554;9.916;2023-07-20T12:51:12;5.20;;;1.20;;
17796;SDS011;55596;53.554;9.916;2023-07-20T12:53:40;3.22;;;1.02;;
17796;SDS011;55596;53.554;9.916;2023-07-20T12:56:07;4.18;;;0.95;;
17796;SDS011;55596;53.554;9.916;2023-07-20T12:58:36;4.85;;;1.13;;
17796;SDS011;55596;53.554;9.916;2023-07-20T13:01:03;7.13;;;1.30;;
17796;SDS011;55596;53.554;9.916;2023-07-20T13:03:31;5.70;;;0.85;;
17796;SDS011;55596;53.554;9.916;2023-07-20T13:05:59;2.00;;;0.70;;
17796;SDS011;55596;53.554;9.916;2023-07-20T13:08:26;3.83;;;0.50;;
17796;SDS011;55596;53.554;9.916;2023-07-20T13:10:53;2.17;;;0.73;;
17796;SDS011;55596;53.554;9.916;2023-07-20T13:13:21;2.35;;;0.68;;
17796;SDS011;55596;53.554;9.916;2023-07-20T13:15:50;4.80;;;1.15;;
17796;SDS011;55596;53.554;9.916;2023-07-20T13:18:17;1.40;;;0.60;;
17796;SDS011;55596;53.554;9.916;2023-07-20T13:20:44;4.28;;;0.80;;
17796;SDS011;55596;53.554;9.916;2023-07-20T13:23:11;2.03;;;0.70;;
17796;SDS011;55596;53.554;9.916;2023-07-20T13:25:39;4.22;;;1.00;;
17796;SDS011;55596;53.554;9.916;2023-07-20T13:28:07;2.70;;;0.82;;
17796;SDS011;55596;53.554;9.916;2023-07-20T13:30:34;3.15;;;1.00;;
17796;SDS011;55596;53.554;9.916;2023-07-20T13:33:03;1.45;;;0.95;;
17796;SDS011;55596;53.554;9.916;2023-07-20T13:35:30;3.97;;;0.75;;
17796;SDS011;55596;53.554;9.916;2023-07-20T13:37:58;2.05;;;0.73;;
17796;SDS011;55596;53.554;9.916;2023-07-20T13:40:25;1.80;;;0.60;;
17796;SDS011;55596;53.554;9.916;2023-07-20T13:42:52;2.47;;;1.00;;
17796;SDS011;55596;53.554;9.916;2023-07-20T13:45:19;3.67;;;1.20;;
17796;SDS011;55596;53.554;9.916;2023-07-20T13:47:46;2.13;;;0.80;;
17796;SDS011;55596;53.554;9.916;2023-07-20T13:50:15;4.15;;;0.90;;
17796;SDS011;55596;53.554;9.916;2023-07-20T13:52:42;4.00;;;1.00;;
17796;SDS011;55596;53.554;9.916;2023-07-20T13:55:10;3.13;;;0.90;;
17796;SDS011;55596;53.554;9.916;2023-07-20T13:57:37;6.63;;;0.90;;
17796;SDS011;55596;53.554;9.916;2023-07-20T14:00:05;3.13;;;0.70;;
17796;SDS011;55596;53.554;9.916;2023-07-20T14:02:33;2.97;;;0.70;;
17796;SDS011;55596;53.554;9.916;2023-07-20T14:05:03;2.35;;;0.85;;
17796;SDS011;55596;53.554;9.916;2023-07-20T14:07:33;3.03;;;0.70;;
17796;SDS011;55596;53.554;9.916;2023-07-20T14:10:01;3.30;;;0.93;;
17796;SDS011;55596;53.554;9.916;2023-07-20T14:12:29;4.30;;;0.95;;
17796;SDS011;55596;53.554;9.916;2023-07-20T14:14:56;2.67;;;0.95;;
17796;SDS011;55596;53.554;9.916;2023-07-20T14:17:24;3.72;;;0.85;;
17796;SDS011;55596;53.554;9.916;2023-07-20T14:19:52;1.80;;;0.80;;
17796;SDS011;55596;53.554;9.916;2023-07-20T14:22:20;3.00;;;0.77;;
17796;SDS011;55596;53.554;9.916;2023-07-20T14:24:49;7.22;;;0.85;;
17796;SDS011;55596;53.554;9.916;2023-07-20T14:27:17;2.05;;;0.60;;
17796;SDS011;55596;53.554;9.916;2023-07-20T14:29:44;4.72;;;0.75;;
17796;SDS011;55596;53.554;9.916;2023-07-20T14:32:11;3.97;;;0.90;;
17796;SDS011;55596;53.554;9.916;2023-07-20T14:34:38;3.75;;;1.02;;
17796;SDS011;55596;53.554;9.916;2023-07-20T14:37:06;1.95;;;0.80;;
17796;SDS011;55596;53.554;9.916;2023-07-20T14:39:34;3.92;;;1.10;;
17796;SDS011;55596;53.554;9.916;2023-07-20T14:42:03;3.53;;;1.27;;
17796;SDS011;55596;53.554;9.916;2023-07-20T14:44:30;3.72;;;1.20;;
17796;SDS011;55596;53.554;9.916;2023-07-20T14:46:57;4.13;;;0.90;;
17796;SDS011;55596;53.554;9.916;2023-07-20T14:49:25;2.65;;;1.00;;
17796;SDS011;55596;53.554;9.916;2023-07-20T14:51:52;4.55;;;1.13;;
17796;SDS011;55596;53.554;9.916;2023-07-20T14:54:22;2.42;;;0.80;;
17796;SDS011;55596;53.554;9.916;2023-07-20T14:56:50;2.05;;;0.95;;